Weather at Howick Airport [CLOSED]

Public forecast

Using degrees Celsius for public forecast. Weather courtesy of forecast.io.

Closest aviation weather report (METAR) to Howick Airport

Closest report is Montreal / Pierre Elliott Trudeau International Airport, 17.1 nm (31.8 km) NNE.

2024/05/20 23:00 (retrieved 1 hour ago)

CYUL 202300Z 29007KT 30SM FEW180 SCT250 29/14 A2984 RMK AC1CI2 SLP108 DENSITY ALT 1800FT

Closest aviation forecast (TAF) to Howick Airport

Forecast is more than 6 hours old.

Closest forecast is Ottawa / Gatineau Airport, 73.5 nm (136.1 km) WNW.

2024/05/20 18:00 (retrieved 6 hours ago)

TAF CYND 201745Z 2018/2101 VRB03KT P6SM BKN240 RMK NXT FCST BY 211300Z